.
WxDataArchive / Data Records for 2006-08-31
2006-08-30 August 2006 2006-09-01

Data Records for Thursday, 31 August 2006

Time	Temp	Chill	HIndex	Humid	Dewpt	 Wind 	HiWind	WindDir	Rain 	Barom 
-----	----	-----	------	-----	-----	------	------	-------	-----	----- 
00:00	66.4	66.4	66.4	80	60.0	2	5	90	0.00	29.992 
00:05	66.3	66.3	66.3	79	59.6	3	7	90	0.00	29.992 
00:10	66.1	66.1	66.1	80	59.7	2	4	90	0.00	29.992 
00:15	66.0	66.0	66.0	80	59.6	2	5	90	0.00	29.991 
00:20	65.6	65.6	65.6	80	59.3	2	5	68	0.00	29.991 
00:25	65.5	65.5	65.5	81	59.5	2	6	90	0.00	29.991 
00:30	65.2	65.2	65.2	81	59.2	1	4	90	0.00	29.996 
00:35	65.0	65.0	65.0	82	59.4	2	7	45	0.00	29.996 
00:40	64.8	64.8	64.8	82	59.2	1	3	135	0.00	29.996 
00:45	64.7	64.7	64.7	83	59.4	2	5	45	0.00	29.994 
00:50	64.7	64.7	64.7	83	59.4	1	3	112	0.00	29.994 
00:55	64.5	64.5	64.5	83	59.2	2	4	90	0.00	29.994 
01:00	64.5	64.5	64.5	83	59.2	2	9	68	0.00	29.990 
01:05	64.3	64.3	64.3	83	59.0	2	5	112	0.00	29.990 
01:10	64.3	64.3	64.3	83	59.0	2	6	68	0.00	29.990 
01:15	64.3	64.3	64.3	83	59.0	3	5	90	0.00	29.990 
01:20	64.2	64.2	64.2	84	59.3	1	4	90	0.00	29.990 
01:25	64.0	64.0	64.0	84	59.1	2	5	112	0.00	29.990 
01:30	64.0	64.0	64.0	84	59.1	2	6	90	0.00	29.992 
01:35	64.0	64.0	64.0	84	59.1	2	5	90	0.00	29.992 
01:40	64.0	64.0	64.0	83	58.7	2	5	90	0.00	29.992 
01:45	64.0	64.0	64.0	84	59.1	1	6	90	0.00	29.988 
01:50	64.2	64.2	64.2	83	58.9	1	4	90	0.00	29.988 
01:55	64.2	64.2	64.2	83	58.9	2	7	90	0.00	29.988 
02:00	64.2	64.2	64.2	83	58.9	1	5	90	0.00	29.987 
02:05	64.0	64.0	64.0	83	58.7	1	4	112	0.00	29.987 
02:10	64.0	64.0	64.0	83	58.7	1	6	68	0.00	29.987 
02:15	64.0	64.0	64.0	83	58.7	1	4	112	0.00	29.993 
02:20	64.0	64.0	64.0	83	58.7	2	4	90	0.00	29.993 
02:25	63.9	63.9	63.9	83	58.6	2	6	112	0.00	29.993 
02:30	63.9	63.9	63.9	83	58.6	1	4	90	0.00	29.995 
02:35	63.7	63.7	63.7	83	58.4	2	6	68	0.00	29.995 
02:40	63.7	63.7	63.7	83	58.4	1	4	90	0.00	29.995 
02:45	63.5	63.5	63.5	83	58.2	1	4	90	0.00	29.992 
02:50	63.5	63.5	63.5	83	58.2	1	5	90	0.00	29.992 
02:55	63.4	63.4	63.4	83	58.1	1	4	112	0.00	29.992 
03:00	63.2	63.2	63.2	82	57.6	1	4	112	0.00	29.986 
03:05	63.2	63.2	63.2	82	57.6	2	5	68	0.00	29.986 
03:10	63.1	63.1	63.1	82	57.5	2	5	90	0.00	29.986 
03:15	62.9	62.9	62.9	81	57.0	2	7	90	0.00	29.993 
03:20	62.7	62.7	62.7	81	56.8	1	4	90	0.00	29.993 
03:25	62.6	62.6	62.6	81	56.7	2	10	90	0.00	29.993 
03:30	62.4	62.4	62.4	81	56.5	2	6	90	0.00	29.991 
03:35	62.4	62.4	62.4	82	56.8	2	5	112	0.00	29.991 
03:40	62.3	62.3	62.3	82	56.7	2	4	112	0.00	29.991 
03:45	62.3	62.3	62.3	82	56.7	1	5	112	0.00	29.994 
03:50	62.1	62.1	62.1	82	56.5	2	5	112	0.00	29.994 
03:55	62.1	62.1	62.1	82	56.5	2	4	90	0.00	29.994 
04:00	62.1	62.1	62.1	82	56.5	2	4	68	0.00	29.995 
04:05	62.1	62.1	62.1	82	56.5	1	5	90	0.00	29.995 
04:10	62.1	62.1	62.1	82	56.5	1	5	68	0.00	29.995 
04:15	62.1	62.1	62.1	83	56.9	1	4	112	0.00	29.995 
04:20	62.1	62.1	62.1	83	56.9	2	4	90	0.00	29.995 
04:25	62.1	62.1	62.1	83	56.9	1	5	90	0.00	29.995 
04:30	62.1	62.1	62.1	83	56.9	1	3	135	0.00	29.991 
04:35	62.1	62.1	62.1	83	56.9	2	5	90	0.00	29.991 
04:40	62.1	62.1	62.1	83	56.9	1	3	68	0.00	29.991 
04:45	62.1	62.1	62.1	83	56.9	2	5	90	0.00	29.986 
04:50	62.1	62.1	62.1	83	56.9	2	5	90	0.00	29.986 
04:55	62.3	62.3	62.3	83	57.1	1	5	90	0.00	29.986 
05:00	62.3	62.3	62.3	84	57.4	2	4	112	0.00	29.987 
05:05	62.3	62.3	62.3	84	57.4	2	7	90	0.00	29.987 
05:10	62.4	62.4	62.4	84	57.5	1	6	45	0.00	29.987 
05:15	62.4	62.4	62.4	84	57.5	1	3	68	0.00	29.988 
05:20	62.4	62.4	62.4	84	57.5	2	4	90	0.00	29.988 
05:25	62.4	62.4	62.4	84	57.5	2	5	90	0.00	29.988 
05:30	62.6	62.6	62.6	84	57.7	1	4	90	0.00	29.989 
05:35	62.6	62.6	62.6	84	57.7	2	4	112	0.00	29.989 
05:40	62.6	62.6	62.6	84	57.7	2	5	90	0.00	29.989 
05:45	62.7	62.7	62.7	84	57.8	2	7	112	0.00	29.988 
05:50	62.7	62.7	62.7	84	57.8	1	3	90	0.00	29.988 
05:55	62.7	62.7	62.7	84	57.8	1	4	90	0.00	29.988 
06:00	62.7	62.7	62.7	83	57.5	2	5	112	0.00	29.987 
06:05	62.7	62.7	62.7	83	57.5	1	4	90	0.00	29.987 
06:10	62.7	62.7	62.7	83	57.5	2	5	90	0.00	29.987 
06:15	62.7	62.7	62.7	83	57.5	2	5	90	0.00	29.987 
06:20	62.7	62.7	62.7	83	57.5	1	5	90	0.00	29.987 
06:25	62.7	62.7	62.7	82	57.1	2	5	90	0.00	29.987 
06:30	62.7	62.7	62.7	82	57.1	2	6	90	0.00	29.991 
06:35	62.7	62.7	62.7	82	57.1	2	4	112	0.00	29.991 
06:40	62.6	62.6	62.6	82	57.0	1	6	68	0.00	29.991 
06:45	62.6	62.6	62.6	82	57.0	1	4	68	0.00	29.991 
06:50	62.6	62.6	62.6	81	56.7	2	4	90	0.00	29.991 
06:55	62.4	62.4	62.4	81	56.5	2	9	90	0.00	29.991 
07:00	62.4	62.4	62.4	81	56.5	2	5	68	0.00	29.997 
07:05	62.4	62.4	62.4	81	56.5	2	6	68	0.00	29.997 
07:10	62.4	62.4	62.4	81	56.5	1	5	90	0.00	29.997 
07:15	62.3	62.3	62.3	81	56.4	2	6	112	0.00	30.002 
07:20	62.3	62.3	62.3	81	56.4	2	4	45	0.00	30.002 
07:25	62.3	62.3	62.3	81	56.4	1	5	68	0.00	30.002 
07:30	62.1	62.1	62.1	81	56.2	1	3	112	0.00	30.007 
07:35	62.1	62.1	62.1	81	56.2	1	5	112	0.00	30.007 
07:40	62.1	62.1	62.1	81	56.2	2	6	68	0.00	30.007 
07:45	62.1	62.1	62.1	81	56.2	1	3	90	0.00	30.009 
07:50	62.1	62.1	62.1	80	55.9	2	5	68	0.00	30.009 
07:55	62.1	62.1	62.1	80	55.9	2	6	112	0.00	30.009 
08:00	62.1	62.1	62.1	81	56.2	2	7	112	0.00	30.002 
08:05	62.0	62.0	62.0	80	55.8	2	4	112	0.00	30.002 
08:10	62.0	62.0	62.0	81	56.1	1	4	112	0.00	30.002 
08:15	61.8	61.8	61.8	83	56.6	2	9	135	0.01	30.007 
08:20	61.5	61.5	61.5	84	56.6	2	6	112	0.00	30.007 
08:25	61.3	61.3	61.3	85	56.7	2	5	112	0.00	30.007 
08:30	61.3	61.3	61.3	85	56.7	2	7	112	0.00	30.012 
08:35	61.3	61.3	61.3	84	56.4	3	6	45	0.00	30.012 
08:40	61.3	61.3	61.3	84	56.4	2	9	112	0.00	30.012 
08:45	61.5	61.5	61.5	84	56.6	2	4	90	0.00	30.015 
08:50	61.6	61.6	61.6	84	56.7	2	6	90	0.00	30.015 
08:55	61.8	61.8	61.8	84	56.9	2	3	45	0.00	30.015 
09:00	61.8	61.8	61.8	85	57.2	1	5	68	0.00	30.017 
09:05	61.8	61.8	61.8	85	57.2	3	6	90	0.00	30.017 
09:10	61.8	61.8	61.8	86	57.6	2	5	45	0.01	30.017 
09:15	61.6	61.6	61.6	86	57.4	2	4	90	0.00	30.018 
09:20	61.6	61.6	61.6	87	57.7	2	6	112	0.00	30.018 
09:25	61.8	61.8	61.8	88	58.2	2	5	112	0.00	30.018 
09:30	61.8	61.8	61.8	86	57.6	2	5	90	0.00	30.026 
09:35	62.0	62.0	62.0	86	57.8	2	6	90	0.00	30.026 
09:40	62.1	62.1	62.1	86	57.9	1	4	90	0.00	30.026 
09:45	62.1	62.1	62.1	86	57.9	1	5	90	0.00	30.028 
09:50	62.1	62.1	62.1	86	57.9	1	5	68	0.00	30.028 
09:55	62.1	62.1	62.1	87	58.2	1	6	68	0.00	30.028 
10:00	62.1	62.1	62.1	87	58.2	1	4	112	0.00	30.031 
10:05	62.1	62.1	62.1	86	57.9	1	4	90	0.00	30.031 
10:10	62.3	62.3	62.3	86	58.1	2	6	112	0.00	30.031 
10:15	62.4	62.4	62.4	86	58.2	2	6	90	0.00	30.031 
10:20	62.6	62.6	62.6	87	58.7	2	7	112	0.00	30.031 
10:25	62.9	62.9	62.9	84	58.0	2	11	112	0.00	30.031 
10:30	63.4	63.4	63.4	85	58.8	2	6	90	0.00	30.032 
10:35	63.5	63.5	63.5	84	58.6	3	9	90	0.00	30.032 
10:40	63.7	63.7	63.7	84	58.8	3	7	90	0.00	30.032 
10:45	64.0	64.0	64.0	84	59.1	2	6	112	0.00	30.032 
10:50	64.2	64.2	64.2	83	58.9	2	9	90	0.00	30.032 
10:55	64.5	64.5	64.5	83	59.2	3	8	90	0.00	30.032 
11:00	64.7	64.7	64.7	83	59.4	3	12	90	0.00	30.036 
11:05	65.0	65.0	65.0	82	59.4	2	11	112	0.00	30.036 
11:10	65.3	65.3	65.3	81	59.3	3	10	90	0.00	30.036 
11:15	65.6	65.6	65.6	81	59.6	3	7	90	0.00	30.038 
11:20	65.8	65.8	65.8	79	59.1	4	9	90	0.00	30.038 
11:25	66.1	66.1	66.1	80	59.7	3	9	90	0.00	30.038 
11:30	66.4	66.4	66.4	80	60.0	3	10	90	0.00	30.042 
11:35	66.4	66.4	66.4	79	59.7	4	11	90	0.00	30.042 
11:40	66.6	66.6	66.6	80	60.2	3	7	90	0.00	30.042 
11:45	66.6	66.6	66.6	79	59.9	4	7	90	0.00	30.044 
11:50	66.8	66.8	66.8	79	60.1	4	12	112	0.00	30.044 
11:55	67.1	67.1	67.1	80	60.7	3	11	90	0.00	30.044 
12:00	67.9	67.9	67.9	78	60.8	3	10	90	0.00	30.045 
12:05	68.6	68.6	68.6	78	61.5	4	13	90	0.00	30.045 
12:10	69.3	69.3	69.3	76	61.4	4	11	90	0.00	30.045 
12:15	69.6	69.6	69.6	76	61.7	5	14	90	0.00	30.044 
12:20	70.4	70.4	70.4	74	61.7	4	9	90	0.00	30.044 
12:25	71.3	71.3	71.3	73	62.2	5	12	90	0.01	30.044 
12:30	71.6	71.6	71.6	73	62.5	5	12	112	0.00	30.041 
12:35	71.6	71.6	71.6	74	62.9	5	11	112	0.00	30.041 
12:40	72.0	72.0	72.0	73	62.9	6	14	112	0.00	30.041 
12:45	72.1	72.1	72.1	72	62.6	5	14	90	0.00	30.041 
12:50	72.1	72.1	72.1	73	63.0	5	13	112	0.00	30.041 
12:55	72.0	72.0	72.0	73	62.9	4	8	90	0.00	30.041 
13:00	72.0	72.0	72.0	72	62.5	5	11	112	0.00	30.041 
13:05	71.8	71.8	71.8	73	62.7	6	16	90	0.00	30.041 
13:10	71.5	71.5	71.5	73	62.4	5	11	90	0.00	30.041 
13:15	71.6	71.6	71.6	73	62.5	5	11	90	0.00	30.041 
13:20	71.5	71.5	71.5	74	62.8	6	17	90	0.00	30.041 
13:25	71.5	71.5	71.5	73	62.4	4	13	112	0.00	30.041 
13:30	71.6	71.6	71.6	72	62.1	4	12	90	0.00	30.039 
13:35	71.8	71.8	71.8	72	62.3	5	11	90	0.00	30.039 
13:40	71.6	71.6	71.6	72	62.1	4	10	112	0.00	30.039 
13:45	71.8	71.8	71.8	73	62.7	5	10	90	0.00	30.037 
13:50	71.8	71.8	71.8	72	62.3	5	14	90	0.00	30.037 
13:55	71.8	71.8	71.8	72	62.3	4	10	90	0.00	30.037 
14:00	72.3	72.3	72.3	71	62.4	5	17	90	0.00	30.029 
14:05	72.5	72.5	72.5	70	62.1	5	12	90	0.00	30.029 
14:10	72.7	72.7	72.7	70	62.3	7	13	112	0.00	30.029 
14:15	72.8	72.8	72.8	71	62.8	4	7	90	0.00	30.033 
14:20	73.2	73.2	73.2	70	62.8	4	10	90	0.00	30.033 
14:25	74.0	74.0	74.0	67	62.3	3	9	112	0.00	30.033 
14:30	74.4	74.4	74.4	67	62.7	5	14	90	0.00	30.027 
14:35	73.9	73.9	73.9	67	62.2	5	12	90	0.00	30.027 
14:40	73.2	73.2	73.2	68	62.0	5	12	90	0.00	30.027 
14:45	73.2	73.2	73.2	69	62.4	3	11	90	0.00	30.034 
14:50	73.0	73.0	73.0	69	62.2	4	11	112	0.00	30.034 
14:55	72.8	72.8	72.8	69	62.0	5	10	90	0.00	30.034 
15:00	72.7	72.7	72.7	70	62.3	4	12	90	0.00	30.038 
15:05	72.5	72.5	72.5	71	62.5	4	9	112	0.00	30.038 
15:10	72.8	72.8	72.8	69	62.0	4	10	90	0.00	30.038 
15:15	73.3	73.3	73.3	70	62.9	4	11	112	0.00	30.032 
15:20	73.3	73.3	73.3	68	62.1	5	13	90	0.00	30.032 
15:25	73.5	73.5	73.5	68	62.3	5	13	112	0.00	30.032 
15:30	73.7	73.7	73.7	69	62.9	5	11	90	0.00	30.028 
15:35	73.7	73.7	73.7	69	62.9	4	9	90	0.00	30.028 
15:40	74.6	74.6	74.6	68	63.3	3	8	90	0.00	30.028 
15:45	75.1	75.1	77.1	65	62.5	5	10	90	0.00	30.027 
15:50	74.9	74.9	74.9	66	62.8	5	14	112	0.00	30.027 
15:55	74.7	74.7	74.7	66	62.6	7	14	112	0.00	30.027 
16:00	75.1	75.1	77.2	64	62.1	6	14	112	0.00	30.026 
16:05	75.1	75.1	77.1	66	62.9	6	13	112	0.00	30.026 
16:10	74.6	74.6	74.6	66	62.5	4	10	112	0.00	30.026 
16:15	74.4	74.4	74.4	67	62.7	5	10	112	0.00	30.026 
16:20	74.2	74.2	74.2	66	62.1	6	13	112	0.00	30.026 
16:25	74.0	74.0	74.0	67	62.3	5	15	90	0.00	30.026 
16:30	73.9	73.9	73.9	65	61.4	6	14	90	0.00	30.027 
16:35	74.0	74.0	74.0	65	61.5	6	15	90	0.00	30.027 
16:40	74.6	74.6	74.6	65	62.0	5	15	112	0.00	30.027 
16:45	74.7	74.7	74.7	65	62.1	5	11	90	0.00	30.024 
16:50	74.4	74.4	74.4	64	61.4	6	16	90	0.00	30.024 
16:55	74.2	74.2	74.2	63	60.8	6	14	90	0.00	30.024 
17:00	74.4	74.4	74.4	64	61.4	4	15	90	0.00	30.016 
17:05	74.9	74.9	74.9	65	62.3	4	11	90	0.00	30.016 
17:10	74.4	74.4	74.4	63	61.0	7	17	90	0.00	30.016 
17:15	73.9	73.9	73.9	65	61.4	5	13	112	0.00	30.016 
17:20	73.9	73.9	73.9	65	61.4	4	10	90	0.00	30.016 
17:25	73.7	73.7	73.7	65	61.2	6	15	90	0.00	30.016 
17:30	74.0	74.0	74.0	63	60.6	6	15	90	0.00	30.018 
17:35	73.7	73.7	73.7	64	60.7	5	12	90	0.00	30.018 
17:40	73.3	73.3	73.3	65	60.8	5	13	112	0.00	30.018 
17:45	73.3	73.3	73.3	63	59.9	5	14	112	0.00	30.026 
17:50	73.2	73.2	73.2	65	60.7	4	10	112	0.00	30.026 
17:55	73.2	73.2	73.2	62	59.4	5	12	90	0.00	30.026 
18:00	72.8	72.8	72.8	65	60.3	5	12	112	0.00	30.028 
18:05	73.0	73.0	73.0	63	59.6	4	9	90	0.00	30.028 
18:10	73.0	73.0	73.0	62	59.2	5	14	90	0.00	30.028 
18:15	72.7	72.7	72.7	64	59.8	4	11	90	0.00	30.033 
18:20	72.3	72.3	72.3	63	59.0	5	10	90	0.00	30.033 
18:25	72.0	72.0	72.0	64	59.1	4	9	90	0.00	30.033 
18:30	71.8	71.8	71.8	65	59.4	3	6	90	0.00	30.043 
18:35	71.6	71.6	71.6	65	59.2	5	12	90	0.00	30.043 
18:40	71.3	71.3	71.3	65	58.9	5	12	90	0.00	30.043 
18:45	70.9	70.9	70.9	65	58.5	4	11	90	0.00	30.047 
18:50	70.8	70.8	70.8	66	58.9	4	9	90	0.00	30.047 
18:55	70.6	70.6	70.6	66	58.7	3	6	90	0.00	30.047 
19:00	70.4	70.4	70.4	67	58.9	4	10	90	0.00	30.050 
19:05	70.4	70.4	70.4	67	58.9	4	11	112	0.00	30.050 
19:10	70.6	70.6	70.6	66	58.7	5	13	90	0.00	30.050 
19:15	70.4	70.4	70.4	66	58.5	5	13	90	0.00	30.049 
19:20	70.3	70.3	70.3	67	58.8	5	13	112	0.00	30.049 
19:25	70.3	70.3	70.3	67	58.8	4	7	90	0.00	30.049 
19:30	69.9	69.9	69.9	67	58.4	4	12	112	0.00	30.051 
19:35	69.8	69.8	69.8	66	57.9	5	14	90	0.00	30.051 
19:40	69.4	69.4	69.4	67	58.0	6	13	112	0.00	30.051 
19:45	69.1	69.1	69.1	69	58.5	5	15	90	0.00	30.057 
19:50	68.9	68.9	68.9	70	58.7	5	12	90	0.00	30.057 
19:55	68.6	68.6	68.6	70	58.4	4	9	90	0.00	30.057 
20:00	68.4	68.4	68.4	70	58.2	4	9	90	0.00	30.061 
20:05	68.3	68.3	68.3	70	58.1	3	8	90	0.00	30.061 
20:10	68.1	68.1	68.1	70	57.9	4	10	90	0.00	30.061 
20:15	68.1	68.1	68.1	70	57.9	4	10	90	0.00	30.064 
20:20	67.9	67.9	67.9	70	57.7	4	11	112	0.00	30.064 
20:25	67.8	67.8	67.8	70	57.6	3	8	90	0.00	30.064 
20:30	67.8	67.8	67.8	70	57.6	4	9	90	0.00	30.064 
20:35	67.8	67.8	67.8	70	57.6	4	9	90	0.00	30.064 
20:40	67.6	67.6	67.6	71	57.9	3	9	90	0.00	30.064 
20:45	67.6	67.6	67.6	70	57.5	3	8	112	0.00	30.064 
20:50	67.6	67.6	67.6	70	57.5	4	10	90	0.00	30.064 
20:55	67.4	67.4	67.4	70	57.3	3	9	90	0.00	30.064 
21:00	67.4	67.4	67.4	71	57.7	3	11	90	0.00	30.075 
21:05	67.3	67.3	67.3	71	57.6	3	7	90	0.00	30.075 
21:10	67.3	67.3	67.3	71	57.6	2	9	112	0.00	30.075 
21:15	67.3	67.3	67.3	71	57.6	3	7	90	0.00	30.080 
21:20	67.1	67.1	67.1	70	57.0	2	6	90	0.00	30.080 
21:25	67.1	67.1	67.1	70	57.0	3	6	90	0.00	30.080 
21:30	67.1	67.1	67.1	71	57.4	2	7	90	0.00	30.083 
21:35	66.9	66.9	66.9	71	57.2	2	7	90	0.00	30.083 
21:40	66.9	66.9	66.9	72	57.6	3	9	90	0.00	30.083 
21:45	66.9	66.9	66.9	72	57.6	2	5	90	0.00	30.090 
21:50	66.8	66.8	66.8	72	57.5	2	5	112	0.00	30.090 
21:55	66.8	66.8	66.8	72	57.5	2	8	112	0.00	30.090 
22:00	66.6	66.6	66.6	72	57.3	3	10	90	0.00	30.090 
22:05	66.6	66.6	66.6	73	57.7	2	5	112	0.00	30.090 
22:10	66.6	66.6	66.6	72	57.3	2	6	112	0.00	30.090 
22:15	66.4	66.4	66.4	73	57.5	2	6	90	0.00	30.086 
22:20	66.3	66.3	66.3	73	57.4	2	5	90	0.00	30.086 
22:25	66.3	66.3	66.3	73	57.4	3	6	90	0.00	30.086 
22:30	66.3	66.3	66.3	73	57.4	2	5	90	0.00	30.084 
22:35	66.1	66.1	66.1	72	56.8	3	10	90	0.00	30.084 
22:40	66.1	66.1	66.1	72	56.8	2	6	112	0.00	30.084 
22:45	66.1	66.1	66.1	72	56.8	3	6	90	0.00	30.081 
22:50	66.0	66.0	66.0	72	56.7	3	9	112	0.00	30.081 
22:55	66.0	66.0	66.0	72	56.7	3	6	112	0.00	30.081 
23:00	66.0	66.0	66.0	72	56.7	3	5	90	0.00	30.079 
23:05	65.8	65.8	65.8	72	56.5	2	6	90	0.00	30.079 
23:10	65.8	65.8	65.8	72	56.5	3	7	90	0.00	30.079 
23:15	65.6	65.6	65.6	73	56.7	2	6	45	0.00	30.075 
23:20	65.6	65.6	65.6	73	56.7	3	7	90	0.00	30.075 
23:25	65.5	65.5	65.5	73	56.6	2	6	112	0.00	30.075 
23:30	65.5	65.5	65.5	73	56.6	3	7	112	0.00	30.076 
23:35	65.3	65.3	65.3	73	56.4	3	6	90	0.00	30.076 
23:40	65.3	65.3	65.3	73	56.4	2	4	112	0.00	30.076 
23:45	65.2	65.2	65.2	73	56.3	3	6	112	0.00	30.079 
23:50	65.2	65.2	65.2	73	56.3	2	6	112	0.00	30.079 
23:55	65.2	65.2	65.2	73	56.3	2	6	90	0.00	30.079 

CoCoRaHS
IN-AL-39
A2 Web Hosting
Creative Commons License
GoDaddy
Look for:

loaded 2017-12-10 21:18:38 • last modified 2010-11-18 10:43:29
Privacy PolicyDisclaimer
• wx.awcolley.com is powered by PmWiki v.2002016 •
• all content (unless otherwise noted) © 2017 A W Colley